createdAt,value
2022-11-23T00:00:45.820Z,2.90
2022-11-23T00:03:14.559Z,2.90
2022-11-23T00:05:41.873Z,2.80
2022-11-23T00:08:09.369Z,2.80
2022-11-23T00:10:36.794Z,2.80
2022-11-23T00:13:04.205Z,2.80
2022-11-23T00:15:32.558Z,2.70
2022-11-23T00:18:02.957Z,2.70
2022-11-23T00:20:30.959Z,2.70
2022-11-23T00:22:58.392Z,2.60
2022-11-23T00:25:25.798Z,2.60
2022-11-23T00:27:53.257Z,2.60
2022-11-23T00:30:20.692Z,2.60
2022-11-23T00:32:48.168Z,2.60
2022-11-23T00:35:15.489Z,2.60
2022-11-23T00:37:42.834Z,2.60
2022-11-23T00:40:11.927Z,2.70
2022-11-23T00:42:39.332Z,2.80
2022-11-23T00:45:06.888Z,2.90
2022-11-23T00:47:34.297Z,3.10
2022-11-23T00:50:01.632Z,3.20
2022-11-23T00:52:29.021Z,3.30
2022-11-23T00:54:56.462Z,3.40
2022-11-23T00:57:23.857Z,3.50
2022-11-23T00:59:51.244Z,3.60
2022-11-23T01:02:18.606Z,3.70
2022-11-23T01:04:46.067Z,3.80
2022-11-23T01:07:13.574Z,3.90
2022-11-23T01:09:40.926Z,3.90
2022-11-23T01:12:09.021Z,4.00
2022-11-23T01:14:36.343Z,4.00
2022-11-23T01:17:05.451Z,4.10
2022-11-23T01:19:35.535Z,4.10
2022-11-23T01:22:03.724Z,4.20
2022-11-23T01:24:31.264Z,4.20
2022-11-23T01:27:00.758Z,4.30
2022-11-23T01:29:28.481Z,4.30
2022-11-23T01:31:55.946Z,4.30
2022-11-23T01:34:23.343Z,4.30
2022-11-23T01:36:50.928Z,4.30
2022-11-23T01:39:18.310Z,4.30
2022-11-23T01:41:45.797Z,4.30
2022-11-23T01:44:23.666Z,4.30
2022-11-23T01:46:54.317Z,4.40
2022-11-23T01:49:23.212Z,4.40
2022-11-23T01:51:52.561Z,4.40
2022-11-23T01:54:32.252Z,4.40
2022-11-23T01:57:04.837Z,4.40
2022-11-23T01:59:34.235Z,4.50
2022-11-23T02:02:02.219Z,4.50
2022-11-23T02:04:34.257Z,4.50
2022-11-23T02:07:03.213Z,4.50
2022-11-23T02:09:31.817Z,4.50
2022-11-23T02:11:59.869Z,4.40
2022-11-23T02:14:27.625Z,4.40
2022-11-23T02:16:58.674Z,4.40
2022-11-23T02:19:42.251Z,4.40
2022-11-23T02:22:12.783Z,4.40
2022-11-23T02:24:44.610Z,4.40
2022-11-23T02:27:12.454Z,4.40
2022-11-23T02:29:39.839Z,4.40
2022-11-23T02:32:07.179Z,4.40
2022-11-23T02:34:34.595Z,4.30
2022-11-23T02:37:02.238Z,4.30
2022-11-23T02:39:33.088Z,4.30
2022-11-23T02:42:01.126Z,4.30
2022-11-23T02:44:47.252Z,4.30
2022-11-23T02:47:14.690Z,4.30
2022-11-23T02:49:42.589Z,4.40
2022-11-23T02:52:10.031Z,4.40
2022-11-23T02:54:37.511Z,4.50
2022-11-23T02:57:05.613Z,4.50
2022-11-23T02:59:34.446Z,4.60
2022-11-23T03:02:02.309Z,4.70
2022-11-23T03:04:30.889Z,4.70
2022-11-23T03:06:58.311Z,4.70
2022-11-23T03:09:26.534Z,4.80
2022-11-23T03:11:54.680Z,4.80
2022-11-23T03:14:22.364Z,4.80
2022-11-23T03:16:59.438Z,4.90
2022-11-23T03:19:27.746Z,5.00
2022-11-23T03:21:55.233Z,5.00
2022-11-23T03:24:22.607Z,5.00
2022-11-23T03:26:52.628Z,5.10
2022-11-23T03:29:22.318Z,5.20
2022-11-23T03:31:49.750Z,5.20
2022-11-23T03:34:18.920Z,5.20
2022-11-23T03:36:46.830Z,5.20
2022-11-23T03:39:14.856Z,5.30
2022-11-23T03:42:08.457Z,5.30
2022-11-23T03:44:36.336Z,5.30
2022-11-23T03:47:05.384Z,5.30
2022-11-23T03:49:34.814Z,5.40
2022-11-23T03:52:03.942Z,5.40
2022-11-23T03:54:31.316Z,5.50
2022-11-23T03:56:58.679Z,5.50
2022-11-23T03:59:26.142Z,5.50
2022-11-23T04:01:53.552Z,5.50
2022-11-23T04:04:25.997Z,5.50
2022-11-23T04:07:11.153Z,5.60
2022-11-23T04:09:48.527Z,5.60
2022-11-23T04:12:34.549Z,5.60
2022-11-23T04:15:02.108Z,5.60
2022-11-23T04:17:30.133Z,5.60
2022-11-23T04:19:58.782Z,5.70
2022-11-23T04:22:26.324Z,5.70
2022-11-23T04:24:53.674Z,5.70
2022-11-23T04:27:21.066Z,5.70
2022-11-23T04:29:48.612Z,5.70
2022-11-23T04:32:26.019Z,5.70
2022-11-23T04:34:57.670Z,5.70
2022-11-23T04:37:25.317Z,5.70
2022-11-23T04:39:53.509Z,5.70
2022-11-23T04:42:26.007Z,5.70
2022-11-23T04:44:58.178Z,5.70
2022-11-23T04:47:25.732Z,5.70
2022-11-23T04:49:54.248Z,5.70
2022-11-23T04:52:21.743Z,5.70
2022-11-23T04:54:50.946Z,5.60
2022-11-23T04:57:18.596Z,5.60
2022-11-23T04:59:48.097Z,5.70
2022-11-23T05:02:16.125Z,5.60
2022-11-23T05:04:59.962Z,5.70
2022-11-23T05:07:31.314Z,5.70
2022-11-23T05:10:03.960Z,5.80
2022-11-23T05:12:33.224Z,5.80
2022-11-23T05:15:01.527Z,5.80
2022-11-23T05:17:35.302Z,5.80
2022-11-23T05:20:05.323Z,5.80
2022-11-23T05:22:35.233Z,5.80
2022-11-23T05:25:02.624Z,5.80
2022-11-23T05:27:33.361Z,5.80
2022-11-23T05:30:01.060Z,5.80
2022-11-23T05:32:28.492Z,5.80
2022-11-23T05:34:57.554Z,5.80
2022-11-23T05:37:27.647Z,5.80
2022-11-23T05:40:01.774Z,5.80
2022-11-23T05:42:31.492Z,5.90
2022-11-23T05:45:11.260Z,5.90
2022-11-23T05:47:43.276Z,5.90
2022-11-23T05:50:21.135Z,5.90
2022-11-23T05:52:48.695Z,6.00
2022-11-23T05:55:16.107Z,5.90
2022-11-23T05:57:44.086Z,5.90
2022-11-23T06:00:12.421Z,5.90
2022-11-23T06:02:52.737Z,5.90
2022-11-23T06:05:20.204Z,5.90
2022-11-23T06:07:52.470Z,5.90
2022-11-23T06:10:23.750Z,5.90
2022-11-23T06:12:52.673Z,5.90
2022-11-23T06:15:22.106Z,5.90
2022-11-23T06:17:50.089Z,5.80
2022-11-23T06:20:21.138Z,5.80
2022-11-23T06:22:57.012Z,5.80
2022-11-23T06:25:26.251Z,5.80
2022-11-23T06:27:59.582Z,5.70
2022-11-23T06:30:33.388Z,5.70
2022-11-23T06:33:05.700Z,5.70
2022-11-23T06:35:39.402Z,5.70
2022-11-23T06:38:06.773Z,5.70
2022-11-23T06:40:34.702Z,5.70
2022-11-23T06:43:03.523Z,5.60
2022-11-23T06:45:43.374Z,5.60
2022-11-23T06:48:14.614Z,5.70
2022-11-23T06:50:46.245Z,5.60
2022-11-23T06:53:15.175Z,5.70
2022-11-23T06:55:53.373Z,5.70
2022-11-23T06:58:21.497Z,5.70
2022-11-23T07:00:49.128Z,5.70
2022-11-23T07:03:25.760Z,5.70
2022-11-23T07:06:04.549Z,5.70
2022-11-23T07:08:33.780Z,5.70
2022-11-23T07:11:10.454Z,5.80
2022-11-23T07:13:38.680Z,5.80
2022-11-23T07:16:06.921Z,5.80
2022-11-23T07:18:34.319Z,5.80
2022-11-23T07:21:02.924Z,5.80
2022-11-23T07:23:30.254Z,5.80
2022-11-23T07:25:57.661Z,5.80
2022-11-23T07:28:25.021Z,5.90
2022-11-23T07:30:52.637Z,5.90
2022-11-23T07:33:21.967Z,5.90
2022-11-23T07:35:50.159Z,5.90
2022-11-23T07:38:17.534Z,5.90
2022-11-23T07:40:44.915Z,6.00
2022-11-23T07:43:25.271Z,6.00
2022-11-23T07:45:56.388Z,6.00
2022-11-23T07:48:24.300Z,6.10
2022-11-23T07:50:52.616Z,6.10
2022-11-23T07:53:19.973Z,6.10
2022-11-23T07:55:47.414Z,6.20
2022-11-23T07:58:14.867Z,6.20
2022-11-23T08:00:42.272Z,6.20
2022-11-23T08:03:27.247Z,6.30
2022-11-23T08:05:56.136Z,6.30
2022-11-23T08:08:24.017Z,6.30
2022-11-23T08:10:53.919Z,6.30
2022-11-23T08:13:22.212Z,6.40
2022-11-23T08:15:55.802Z,6.40
2022-11-23T08:18:24.222Z,6.40
2022-11-23T08:20:51.604Z,6.40
2022-11-23T08:23:19.311Z,6.40
2022-11-23T08:25:46.716Z,6.40
2022-11-23T08:28:14.154Z,6.40
2022-11-23T08:30:41.451Z,6.40
2022-11-23T08:33:09.196Z,6.50
2022-11-23T08:35:37.305Z,6.50
2022-11-23T08:38:05.318Z,6.50
2022-11-23T08:40:32.823Z,6.50
2022-11-23T08:43:00.235Z,6.50
2022-11-23T08:45:27.961Z,6.50
2022-11-23T08:47:59.710Z,6.60
2022-11-23T08:50:29.593Z,6.60
2022-11-23T08:52:57.985Z,6.60
2022-11-23T08:55:26.320Z,6.60
2022-11-23T08:57:57.984Z,6.60
2022-11-23T09:00:26.185Z,6.60
2022-11-23T09:02:53.916Z,6.70
2022-11-23T09:05:21.270Z,6.70
2022-11-23T09:07:48.748Z,6.80
2022-11-23T09:10:18.595Z,6.80
2022-11-23T09:12:47.153Z,6.80
2022-11-23T09:15:14.912Z,6.80
2022-11-23T09:17:42.423Z,6.80
2022-11-23T09:20:10.381Z,6.80
2022-11-23T09:22:37.847Z,6.90
2022-11-23T09:25:05.621Z,6.90
2022-11-23T09:27:33.269Z,6.90
2022-11-23T09:30:00.642Z,7.00
2022-11-23T09:32:28.234Z,7.10
2022-11-23T09:34:55.611Z,7.20
2022-11-23T09:37:23.024Z,7.20
2022-11-23T09:39:50.383Z,7.20
2022-11-23T09:42:17.960Z,7.30
2022-11-23T09:44:57.849Z,7.40
2022-11-23T09:47:43.885Z,7.40
2022-11-23T09:50:11.715Z,7.50
2022-11-23T09:52:42.470Z,7.60
2022-11-23T09:55:24.692Z,7.70
2022-11-23T09:57:56.763Z,7.70
2022-11-23T10:00:24.408Z,7.90
2022-11-23T10:02:51.930Z,8.00
2022-11-23T10:05:23.692Z,8.10
2022-11-23T10:08:10.644Z,8.20
2022-11-23T10:10:41.650Z,8.30
2022-11-23T10:13:09.059Z,8.30
2022-11-23T10:15:45.380Z,8.30
2022-11-23T10:18:31.535Z,8.40
2022-11-23T10:21:03.430Z,8.30
2022-11-23T10:23:30.817Z,8.30
2022-11-23T10:25:58.180Z,8.30
2022-11-23T10:28:29.136Z,8.30
2022-11-23T10:31:12.887Z,8.30
2022-11-23T10:33:48.349Z,8.30
2022-11-23T10:36:16.326Z,8.20
2022-11-23T10:38:48.496Z,8.20
2022-11-23T10:41:17.029Z,8.20
2022-11-23T10:43:47.438Z,8.30
2022-11-23T10:46:31.802Z,8.20
2022-11-23T10:49:29.675Z,8.30
2022-11-23T10:51:58.208Z,8.30
2022-11-23T10:54:30.798Z,8.30
2022-11-23T10:56:59.696Z,8.30
2022-11-23T10:59:32.190Z,8.30
2022-11-23T11:02:02.711Z,8.30
2022-11-23T11:04:30.350Z,8.40
2022-11-23T11:07:30.875Z,8.40
2022-11-23T11:09:59.757Z,8.40
2022-11-23T11:12:28.459Z,8.50
2022-11-23T11:14:59.370Z,8.50
2022-11-23T11:17:34.002Z,8.50
2022-11-23T11:20:21.327Z,8.50
2022-11-23T11:22:49.378Z,8.60
2022-11-23T11:25:35.087Z,8.60
2022-11-23T11:28:06.935Z,8.60
2022-11-23T11:30:43.312Z,8.60
2022-11-23T11:33:14.813Z,8.60
2022-11-23T11:35:43.642Z,8.70
2022-11-23T11:38:17.183Z,8.70
2022-11-23T11:40:52.394Z,8.70
2022-11-23T11:43:34.805Z,8.70
2022-11-23T11:46:28.587Z,8.70
2022-11-23T11:49:00.183Z,8.70
2022-11-23T11:51:34.404Z,8.70
2022-11-23T11:54:20.745Z,8.80
2022-11-23T11:56:52.897Z,8.80
2022-11-23T11:59:26.306Z,8.80
2022-11-23T12:02:12.585Z,8.80
2022-11-23T12:04:41.717Z,8.80
2022-11-23T12:07:22.702Z,8.90
2022-11-23T12:09:52.401Z,9.00
2022-11-23T12:12:26.613Z,9.00
2022-11-23T12:14:57.252Z,9.10
2022-11-23T12:17:42.488Z,9.10
2022-11-23T12:20:19.813Z,9.10
2022-11-23T12:22:58.747Z,9.30
2022-11-23T12:25:42.013Z,9.40
2022-11-23T12:28:17.066Z,9.40
2022-11-23T12:30:56.823Z,9.50
2022-11-23T12:33:33.359Z,9.50
2022-11-23T12:36:23.601Z,9.50
2022-11-23T12:38:55.556Z,9.50
2022-11-23T12:41:29.065Z,9.60
2022-11-23T12:44:15.319Z,9.80
2022-11-23T12:46:42.731Z,9.80
2022-11-23T12:49:19.404Z,10.00
2022-11-23T12:51:56.032Z,10.00
2022-11-23T12:54:41.908Z,10.00
2022-11-23T12:57:17.386Z,10.00
2022-11-23T12:59:48.767Z,9.90
2022-11-23T13:02:36.970Z,9.90
2022-11-23T13:05:04.304Z,9.80
2022-11-23T13:07:41.024Z,9.40
2022-11-23T13:10:24.948Z,9.00
2022-11-23T13:13:15.644Z,8.60
2022-11-23T13:16:06.587Z,8.20
2022-11-23T13:18:46.465Z,7.90
2022-11-23T13:21:20.277Z,7.70
2022-11-23T13:23:47.827Z,7.50
2022-11-23T13:26:16.701Z,7.40
2022-11-23T13:28:45.205Z,7.40
2022-11-23T13:31:16.140Z,7.40
2022-11-23T13:33:44.752Z,7.40
2022-11-23T13:36:18.450Z,7.40
2022-11-23T13:38:47.163Z,7.40
2022-11-23T13:41:33.840Z,7.40
2022-11-23T13:44:20.106Z,7.40
2022-11-23T13:47:01.222Z,7.50
2022-11-23T13:49:31.748Z,7.50
2022-11-23T13:52:22.529Z,7.60
2022-11-23T13:55:13.437Z,7.70
2022-11-23T13:57:42.056Z,7.70
2022-11-23T14:00:28.344Z,7.80
2022-11-23T14:03:15.784Z,7.80
2022-11-23T14:05:49.308Z,7.80
2022-11-23T14:08:21.287Z,7.80
2022-11-23T14:10:49.427Z,7.80
2022-11-23T14:13:19.951Z,7.80
2022-11-23T14:15:54.692Z,7.80
2022-11-23T14:18:28.183Z,7.80
2022-11-23T14:20:55.648Z,7.80
2022-11-23T14:23:41.888Z,7.80
2022-11-23T14:26:18.675Z,7.80
2022-11-23T14:29:02.228Z,7.90
2022-11-23T14:31:32.829Z,7.80
2022-11-23T14:34:15.582Z,7.80
2022-11-23T14:36:46.065Z,7.70
2022-11-23T14:39:33.567Z,7.60
2022-11-23T14:42:03.123Z,7.60
2022-11-23T14:44:35.617Z,7.60
2022-11-23T14:47:07.087Z,7.60
2022-11-23T14:49:34.994Z,7.60
2022-11-23T14:52:04.710Z,7.70
2022-11-23T14:54:32.875Z,7.60
2022-11-23T14:57:01.898Z,7.70
2022-11-23T14:59:34.457Z,7.60
2022-11-23T15:02:02.954Z,7.60
2022-11-23T15:04:36.881Z,7.60
2022-11-23T15:07:04.773Z,7.60
2022-11-23T15:09:37.044Z,7.50
2022-11-23T15:12:21.488Z,7.40
2022-11-23T15:14:50.577Z,7.30
2022-11-23T15:17:19.694Z,7.20
2022-11-23T15:20:00.965Z,7.10
2022-11-23T15:22:29.135Z,7.00
2022-11-23T15:25:06.550Z,6.90
2022-11-23T15:27:33.883Z,6.80
2022-11-23T15:30:01.316Z,6.80
2022-11-23T15:32:32.756Z,6.70
2022-11-23T15:35:06.956Z,6.70
2022-11-23T15:37:40.550Z,6.60
2022-11-23T15:40:12.580Z,6.50
2022-11-23T15:42:40.455Z,6.40
2022-11-23T15:45:28.068Z,6.40
2022-11-23T15:47:59.284Z,6.30
2022-11-23T15:50:29.850Z,6.30
2022-11-23T15:53:01.472Z,6.30
2022-11-23T15:55:29.546Z,6.30
2022-11-23T15:57:57.328Z,6.30
2022-11-23T16:00:25.743Z,6.40
2022-11-23T16:02:53.254Z,6.40
2022-11-23T16:05:25.500Z,6.50
2022-11-23T16:07:59.673Z,6.40
2022-11-23T16:10:28.239Z,6.50
2022-11-23T16:12:57.018Z,6.50
2022-11-23T16:15:32.662Z,6.40
2022-11-23T16:18:01.045Z,6.40
2022-11-23T16:20:29.604Z,6.30
2022-11-23T16:22:59.468Z,6.40
2022-11-23T16:25:28.725Z,6.40
2022-11-23T16:28:02.262Z,6.40
2022-11-23T16:30:36.074Z,6.50
2022-11-23T16:33:03.995Z,6.40
2022-11-23T16:35:31.508Z,6.50
2022-11-23T16:37:58.962Z,6.50
2022-11-23T16:40:26.319Z,6.50
2022-11-23T16:42:54.086Z,6.50
2022-11-23T16:45:21.478Z,6.50
2022-11-23T16:47:51.895Z,6.40
2022-11-23T16:50:19.315Z,6.40
2022-11-23T16:52:46.924Z,6.40
2022-11-23T16:55:14.455Z,6.30
2022-11-23T16:57:42.440Z,6.20
2022-11-23T17:00:18.006Z,6.10
2022-11-23T17:02:45.872Z,6.10
2022-11-23T17:05:17.293Z,6.00
2022-11-23T17:07:45.066Z,6.00
2022-11-23T17:10:16.201Z,5.90
2022-11-23T17:12:51.168Z,5.80
2022-11-23T17:15:20.178Z,5.90
2022-11-23T17:17:47.528Z,5.80
2022-11-23T17:20:15.519Z,5.80
2022-11-23T17:22:43.383Z,5.80
2022-11-23T17:25:15.050Z,5.80
2022-11-23T17:27:44.991Z,5.90
2022-11-23T17:30:17.301Z,5.80
2022-11-23T17:32:44.754Z,5.80
2022-11-23T17:35:12.110Z,5.80
2022-11-23T17:37:39.580Z,5.80
2022-11-23T17:40:13.187Z,5.80
2022-11-23T17:42:40.536Z,5.80
2022-11-23T17:45:08.048Z,5.80
2022-11-23T17:47:35.515Z,5.70
2022-11-23T17:50:03.398Z,5.70
2022-11-23T17:52:30.737Z,5.60
2022-11-23T17:54:58.063Z,5.60
2022-11-23T17:57:26.348Z,5.60
2022-11-23T17:59:54.226Z,5.60
2022-11-23T18:02:21.584Z,5.80
2022-11-23T18:04:49.039Z,5.80
2022-11-23T18:07:16.680Z,6.00
2022-11-23T18:09:44.222Z,6.10
2022-11-23T18:12:11.839Z,6.10
2022-11-23T18:14:39.225Z,6.10
2022-11-23T18:17:06.765Z,6.10
2022-11-23T18:19:34.584Z,6.10
2022-11-23T18:22:02.055Z,6.10
2022-11-23T18:24:29.516Z,6.10
2022-11-23T18:26:57.397Z,6.10
2022-11-23T18:29:24.781Z,6.10
2022-11-23T18:31:52.228Z,6.10
2022-11-23T18:34:19.715Z,6.20
2022-11-23T18:36:47.069Z,6.30
2022-11-23T18:39:14.511Z,6.30
2022-11-23T18:41:41.971Z,6.40
2022-11-23T18:44:09.372Z,6.50
2022-11-23T18:46:36.816Z,6.50
2022-11-23T18:49:04.196Z,6.50
2022-11-23T18:51:31.643Z,6.50
2022-11-23T18:53:59.041Z,6.50
2022-11-23T18:56:26.418Z,6.60
2022-11-23T18:58:54.169Z,6.60
2022-11-23T19:01:22.631Z,6.60
2022-11-23T19:03:51.123Z,6.60
2022-11-23T19:06:19.524Z,6.60
2022-11-23T19:08:48.496Z,6.70
2022-11-23T19:11:18.040Z,6.70
2022-11-23T19:13:46.401Z,6.70
2022-11-23T19:16:15.320Z,6.70
2022-11-23T19:18:42.980Z,6.70
2022-11-23T19:21:13.811Z,6.70
2022-11-23T19:23:41.308Z,6.70
2022-11-23T19:26:08.892Z,6.80
2022-11-23T19:28:36.334Z,6.80
2022-11-23T19:31:30.233Z,6.80
2022-11-23T19:34:00.805Z,6.80
2022-11-23T19:36:30.857Z,6.80
2022-11-23T19:38:58.386Z,6.80
2022-11-23T19:41:30.540Z,6.70
2022-11-23T19:43:59.210Z,6.70
2022-11-23T19:46:27.083Z,6.70
2022-11-23T19:48:54.969Z,6.60
2022-11-23T19:51:23.574Z,6.60
2022-11-23T19:53:51.294Z,6.50
2022-11-23T19:56:19.692Z,6.50
2022-11-23T19:58:50.115Z,6.50
2022-11-23T20:01:18.891Z,6.40
2022-11-23T20:03:47.224Z,6.30
2022-11-23T20:06:17.515Z,6.20
2022-11-23T20:08:45.538Z,6.10
2022-11-23T20:11:14.086Z,6.10
2022-11-23T20:13:42.010Z,6.10
2022-11-23T20:16:10.698Z,6.00
2022-11-23T20:18:38.574Z,5.90
2022-11-23T20:21:10.732Z,5.80
2022-11-23T20:23:38.593Z,5.80
2022-11-23T20:26:05.967Z,5.70
2022-11-23T20:28:33.631Z,5.70
2022-11-23T20:31:04.810Z,5.60
2022-11-23T20:33:32.424Z,5.50
2022-11-23T20:36:09.517Z,5.40
2022-11-23T20:38:37.868Z,5.40
2022-11-23T20:41:15.566Z,5.40
2022-11-23T20:43:43.612Z,5.30
2022-11-23T20:46:11.470Z,5.30
2022-11-23T20:48:40.776Z,5.30
2022-11-23T20:51:10.644Z,5.30
2022-11-23T20:53:38.812Z,5.20
2022-11-23T20:56:10.595Z,5.20
2022-11-23T20:58:38.306Z,5.10
2022-11-23T21:01:06.593Z,5.10
2022-11-23T21:03:34.481Z,5.20
2022-11-23T21:06:10.120Z,5.30
2022-11-23T21:08:39.787Z,5.30
2022-11-23T21:11:26.829Z,5.30
2022-11-23T21:14:06.374Z,5.40
2022-11-23T21:16:35.245Z,5.40
2022-11-23T21:19:03.424Z,5.40
2022-11-23T21:21:30.924Z,5.50
2022-11-23T21:23:58.337Z,5.50
2022-11-23T21:26:25.685Z,5.50
2022-11-23T21:28:53.757Z,5.60
2022-11-23T21:31:21.358Z,5.60
2022-11-23T21:33:52.382Z,5.70
2022-11-23T21:36:22.431Z,5.70
2022-11-23T21:38:49.807Z,5.70
2022-11-23T21:41:18.154Z,5.80
2022-11-23T21:43:51.874Z,5.80
2022-11-23T21:46:19.389Z,5.80
2022-11-23T21:48:47.113Z,5.80
2022-11-23T21:51:15.163Z,5.80
2022-11-23T21:53:42.560Z,5.90
2022-11-23T21:56:11.038Z,5.80
2022-11-23T21:58:38.632Z,5.80
2022-11-23T22:01:11.038Z,5.90
2022-11-23T22:03:38.469Z,5.90
2022-11-23T22:06:06.624Z,5.80
2022-11-23T22:08:34.074Z,5.90
2022-11-23T22:11:08.934Z,5.90
2022-11-23T22:13:37.214Z,5.90
2022-11-23T22:16:11.865Z,5.80
2022-11-23T22:18:39.425Z,5.90
2022-11-23T22:21:06.751Z,5.90
2022-11-23T22:23:34.100Z,5.90
2022-11-23T22:26:02.145Z,5.80
2022-11-23T22:28:33.008Z,5.80
2022-11-23T22:31:02.754Z,5.70
2022-11-23T22:33:30.465Z,5.70
2022-11-23T22:36:01.584Z,5.70
2022-11-23T22:38:32.221Z,5.60
2022-11-23T22:41:00.626Z,5.70
2022-11-23T22:43:28.942Z,5.70
2022-11-23T22:46:07.032Z,5.80
2022-11-23T22:48:38.168Z,5.80
2022-11-23T22:51:06.098Z,5.80
2022-11-23T22:53:33.471Z,5.80
2022-11-23T22:56:02.952Z,5.80
2022-11-23T22:58:31.474Z,5.70
2022-11-23T23:01:06.206Z,5.70
2022-11-23T23:03:33.838Z,5.60
2022-11-23T23:06:01.810Z,5.60
2022-11-23T23:08:29.274Z,5.50
2022-11-23T23:10:56.714Z,5.60
2022-11-23T23:13:24.127Z,5.60
2022-11-23T23:16:00.055Z,5.60
2022-11-23T23:18:27.881Z,5.60
2022-11-23T23:21:06.788Z,5.70
2022-11-23T23:23:34.238Z,5.70
2022-11-23T23:26:01.521Z,5.70
2022-11-23T23:28:29.232Z,5.70
2022-11-23T23:31:04.119Z,5.70
2022-11-23T23:33:39.414Z,5.60
2022-11-23T23:36:11.000Z,5.70
2022-11-23T23:38:38.547Z,5.70
2022-11-23T23:41:06.777Z,5.70
2022-11-23T23:43:34.129Z,5.80
2022-11-23T23:46:02.497Z,5.80
2022-11-23T23:48:39.820Z,5.80
2022-11-23T23:51:14.960Z,5.80
2022-11-23T23:53:42.827Z,5.90
2022-11-23T23:56:20.687Z,5.90
2022-11-23T23:58:48.477Z,5.80
